Santa Maria Manuela — CSKO — position and weather

sailwx.info

Track history (hours):
 
Tides and Currents Weather Stations Pressure Air Temp Water Temp Dewpoint Dewpoint Depression Visibility Wind Speed Wind Dir Waves Ship Positions

Santa Maria Manuela

Last reported at 2019-Dec-12 07:31 UTC. Time now 2019-Dec-12 08:21 UTC.
Position N 38°37' W 009°23'.

Length 68 m; draft 4.3 m.

Type: Sailing vessel. MMSI: 255806006.

Date/timePositionNaut miles runAvg speedWind from/ knotsBaromVisibWave heightAir tempDewpointWater temp
2019-Dec-12 07:31N 38°37' W 009°23'3 1.9
2019-Dec-12 06:01N 38°34' W 009°22'7 4.6
2019-Dec-12 04:30N 38°35' W 009°31'7 2.7
2019-Dec-12 02:00N 38°32' W 009°39'1 2.7
2019-Dec-12 01:30N 38°32' W 009°41'3 2.7
2019-Dec-12 00:30N 38°31' W 009°44'2 3.1
2019-Dec-12 00:00N 38°31' W 009°46'4 3.0
2019-Dec-11 22:30N 38°29' W 009°51'7 4.7
2019-Dec-11 21:00N 38°27' W 010°00'142 5.8
2019-Dec-10 20:30N 37°37' W 012°49'31 7.7
2019-Dec-10 16:30N 37°26' W 013°26'16 7.1
2019-Dec-10 14:18N 37°19' W 013°43'9 7.0
2019-Dec-10 13:00N 37°14' W 013°53'4 7.3
2019-Dec-10 12:30N 37°12' W 013°57'17 7.5
2019-Dec-10 10:13N 37°03' W 014°15'100 6.8
2019-Dec-09 19:31N 35°33' W 015°08'10 6.7
2019-Dec-09 18:00N 35°23' W 015°13'  
2019-Dec-03 03:24N 29°06' W 015°36'14 4.7
2019-Dec-03 00:30N 28°53' W 015°32'8 5.1
2019-Dec-02 23:00N 28°45' W 015°30'3 5.1
2019-Dec-02 22:30N 28°43' W 015°30'5 5.2
2019-Dec-02 21:30N 28°38' W 015°29'11 5.3
2019-Dec-02 19:31N 28°27' W 015°26'3 5.0
2019-Dec-02 19:00N 28°25' W 015°26'2 5.0
2019-Dec-02 18:31N 28°22' W 015°25'5 5.3
2019-Dec-02 17:31N 28°17' W 015°24'3 5.5
2019-Dec-02 17:00N 28°14' W 015°24'5 5.4
2019-Dec-02 16:00N 28°09' W 015°23'2 0.8
2019-Dec-02 12:58N 28°09' W 015°26'0 0.0
2019-Dec-02 11:28N 28°09' W 015°26'0 0.0
2019-Dec-02 08:28N 28°09' W 015°26'  
Track history (hours):
 
Tides and Currents Weather Stations Pressure Air Temp Water Temp Dewpoint Dewpoint Depression Visibility Wind Speed Wind Dir Waves Ship Positions

Santa Maria Manuela

Last reported at 2019-Dec-12 07:31 UTC. Time now 2019-Dec-12 08:21 UTC.
Position N 38°37' W 009°23'.

Length 68 m; draft 4.3 m.

Type: Sailing vessel. MMSI: 255806006.

Date/timePositionNaut miles runAvg speedWind from/ knotsBaromVisibWave heightAir tempDewpointWater temp
2019-Dec-12 07:31N 38°37' W 009°23'3 1.9
2019-Dec-12 06:01N 38°34' W 009°22'7 4.6
2019-Dec-12 04:30N 38°35' W 009°31'7 2.7
2019-Dec-12 02:00N 38°32' W 009°39'1 2.7
2019-Dec-12 01:30N 38°32' W 009°41'3 2.7
2019-Dec-12 00:30N 38°31' W 009°44'2 3.1
2019-Dec-12 00:00N 38°31' W 009°46'4 3.0
2019-Dec-11 22:30N 38°29' W 009°51'7 4.7
2019-Dec-11 21:00N 38°27' W 010°00'142 5.8
2019-Dec-10 20:30N 37°37' W 012°49'31 7.7
2019-Dec-10 16:30N 37°26' W 013°26'16 7.1
2019-Dec-10 14:18N 37°19' W 013°43'9 7.0
2019-Dec-10 13:00N 37°14' W 013°53'4 7.3
2019-Dec-10 12:30N 37°12' W 013°57'17 7.5
2019-Dec-10 10:13N 37°03' W 014°15'100 6.8
2019-Dec-09 19:31N 35°33' W 015°08'10 6.7
2019-Dec-09 18:00N 35°23' W 015°13'  
2019-Dec-03 03:24N 29°06' W 015°36'14 4.7
2019-Dec-03 00:30N 28°53' W 015°32'8 5.1
2019-Dec-02 23:00N 28°45' W 015°30'3 5.1
2019-Dec-02 22:30N 28°43' W 015°30'5 5.2
2019-Dec-02 21:30N 28°38' W 015°29'11 5.3
2019-Dec-02 19:31N 28°27' W 015°26'3 5.0
2019-Dec-02 19:00N 28°25' W 015°26'2 5.0
2019-Dec-02 18:31N 28°22' W 015°25'5 5.3
2019-Dec-02 17:31N 28°17' W 015°24'3 5.5
2019-Dec-02 17:00N 28°14' W 015°24'5 5.4
2019-Dec-02 16:00N 28°09' W 015°23'2 0.8
2019-Dec-02 12:58N 28°09' W 015°26'0 0.0
2019-Dec-02 11:28N 28°09' W 015°26'0 0.0
2019-Dec-02 08:28N 28°09' W 015°26'  

Dump ship's entire track history